createdAt,value
2019-06-07T00:02:26.730Z,6.40
2019-06-07T00:04:54.234Z,6.90
2019-06-07T00:07:22.062Z,6.97
2019-06-07T00:09:49.629Z,7.40
2019-06-07T00:12:21.084Z,6.73
2019-06-07T00:14:46.450Z,6.73
2019-06-07T00:17:15.930Z,7.10
2019-06-07T00:19:43.338Z,7.93
2019-06-07T00:22:19.583Z,7.90
2019-06-07T00:24:40.178Z,7.87
2019-06-07T00:27:08.430Z,7.47
2019-06-07T00:29:36.586Z,7.03
2019-06-07T00:32:04.133Z,7.60
2019-06-07T00:34:31.656Z,8.20
2019-06-07T00:36:59.096Z,7.33
2019-06-07T00:39:26.559Z,8.33
2019-06-07T00:41:54.087Z,8.47
2019-06-07T00:44:23.198Z,8.13
2019-06-07T00:46:50.875Z,8.13
2019-06-07T00:49:32.270Z,8.53
2019-06-07T00:51:51.346Z,8.60
2019-06-07T00:54:19.562Z,8.83
2019-06-07T00:56:46.322Z,8.03
2019-06-07T00:59:16.242Z,7.80
2019-06-07T01:01:43.205Z,8.00
2019-06-07T01:04:10.686Z,7.33
2019-06-07T01:06:39.127Z,9.77
2019-06-07T01:09:07.650Z,8.17
2019-06-07T01:11:35.231Z,8.83
2019-06-07T01:14:02.982Z,8.60
2019-06-07T01:16:55.749Z,8.23
2019-06-07T01:19:00.878Z,9.00
2019-06-07T01:21:29.901Z,8.63
2019-06-07T01:24:11.514Z,8.93
2019-06-07T01:26:29.841Z,8.50
2019-06-07T01:28:56.351Z,9.23
2019-06-07T01:31:27.597Z,8.30
2019-06-07T01:33:53.172Z,8.33
2019-06-07T01:36:22.345Z,8.67
2019-06-07T01:38:50.025Z,9.40
2019-06-07T01:41:21.548Z,8.60
2019-06-07T01:43:46.936Z,8.83
2019-06-07T01:46:14.473Z,8.73
2019-06-07T01:48:49.383Z,9.90
2019-06-07T01:51:11.349Z,9.03
2019-06-07T01:53:38.874Z,8.87
2019-06-07T01:56:06.353Z,8.80
2019-06-07T01:58:33.918Z,10.13
2019-06-07T02:01:01.372Z,8.70
2019-06-07T02:03:32.165Z,9.00
2019-06-07T02:05:58.242Z,8.80
2019-06-07T02:08:27.282Z,8.50
2019-06-07T02:10:55.063Z,9.63
2019-06-07T02:13:23.728Z,9.37
2019-06-07T02:15:51.949Z,8.90
2019-06-07T02:18:21.776Z,8.70
2019-06-07T02:20:48.724Z,10.00
2019-06-07T02:23:16.236Z,8.87
2019-06-07T02:25:50.290Z,9.43
2019-06-07T02:28:27.073Z,9.93
2019-06-07T02:30:50.545Z,9.03
2019-06-07T02:33:11.837Z,9.33
2019-06-07T02:35:40.943Z,8.93
2019-06-07T02:38:08.745Z,10.50
2019-06-07T02:40:37.486Z,9.10
2019-06-07T02:43:05.458Z,8.83
2019-06-07T02:45:42.599Z,10.57
2019-06-07T02:48:02.361Z,8.50
2019-06-07T02:50:35.436Z,8.80
2019-06-07T02:52:59.271Z,10.07
2019-06-07T02:55:29.588Z,10.33
2019-06-07T02:57:56.133Z,8.83
2019-06-07T03:01:04.033Z,10.13
2019-06-07T03:03:14.416Z,8.80
2019-06-07T03:05:43.545Z,10.60
2019-06-07T03:08:16.687Z,8.43
2019-06-07T03:10:46.600Z,8.70
2019-06-07T03:13:16.931Z,8.67
2019-06-07T03:15:50.031Z,8.30
2019-06-07T03:18:36.797Z,8.17
2019-06-07T03:21:06.496Z,8.90
2019-06-07T03:23:36.063Z,10.27
2019-06-07T03:26:04.830Z,10.00
2019-06-07T03:28:36.101Z,8.53
2019-06-07T03:31:03.277Z,8.57
2019-06-07T03:33:33.451Z,10.13
2019-06-07T03:36:13.007Z,8.50
2019-06-07T03:38:31.974Z,9.40
2019-06-07T03:40:58.977Z,10.37
2019-06-07T03:43:27.347Z,9.13
2019-06-07T03:45:55.023Z,10.47
2019-06-07T03:48:22.540Z,9.77
2019-06-07T03:51:04.265Z,9.00
2019-06-07T03:53:19.413Z,9.63
2019-06-07T03:55:46.922Z,8.73
2019-06-07T03:58:31.522Z,8.70
2019-06-07T04:00:46.859Z,8.77
2019-06-07T04:03:33.019Z,9.60
2019-06-07T04:05:43.867Z,8.27
2019-06-07T04:08:11.423Z,9.40
2019-06-07T04:10:55.954Z,8.67
2019-06-07T04:13:08.317Z,8.10
2019-06-07T04:15:38.316Z,10.53
2019-06-07T04:18:05.179Z,8.60
2019-06-07T04:20:34.585Z,7.97
2019-06-07T04:23:02.099Z,8.33
2019-06-07T04:25:31.758Z,8.93
2019-06-07T04:27:58.945Z,10.33
2019-06-07T04:30:55.090Z,9.03
2019-06-07T04:33:22.608Z,10.03
2019-06-07T04:35:50.846Z,8.90
2019-06-07T04:38:18.361Z,9.63
2019-06-07T04:40:47.195Z,8.50
2019-06-07T04:43:14.799Z,10.23
2019-06-07T04:45:50.695Z,8.97
2019-06-07T04:48:11.693Z,10.23
2019-06-07T04:50:43.964Z,8.70
2019-06-07T04:53:10.720Z,9.00
2019-06-07T04:55:40.310Z,14.57
2019-06-07T04:58:10.469Z,8.73
2019-06-07T05:01:01.550Z,9.93
2019-06-07T05:03:07.351Z,9.43
2019-06-07T05:05:37.441Z,9.33
2019-06-07T05:08:07.594Z,9.83
2019-06-07T05:10:35.169Z,8.40
2019-06-07T05:13:03.055Z,9.57
2019-06-07T05:15:32.055Z,8.80
2019-06-07T05:17:59.678Z,8.47
2019-06-07T05:20:27.205Z,8.40
2019-06-07T05:22:55.836Z,8.50
2019-06-07T05:25:23.288Z,9.37
2019-06-07T05:27:50.716Z,8.33
2019-06-07T05:33:04.943Z,8.17
2019-06-07T05:35:33.088Z,9.73
2019-06-07T05:38:03.655Z,8.23
2019-06-07T05:40:34.884Z,8.13
2019-06-07T05:43:03.234Z,7.87
2019-06-07T05:45:35.794Z,8.33
2019-06-07T05:48:03.767Z,8.17
2019-06-07T05:50:42.350Z,7.80
2019-06-07T05:53:00.605Z,8.47
2019-06-07T05:55:28.114Z,7.47
2019-06-07T05:57:55.658Z,8.37
2019-06-07T06:00:23.176Z,7.60
2019-06-07T06:03:04.284Z,7.67
2019-06-07T06:05:33.422Z,10.13
2019-06-07T06:07:50.907Z,7.00
2019-06-07T06:10:18.489Z,7.10
2019-06-07T06:12:51.511Z,6.87
2019-06-07T06:15:15.520Z,7.37
2019-06-07T06:17:46.166Z,7.20
2019-06-07T06:20:12.624Z,6.70
2019-06-07T06:22:44.060Z,7.70
2019-06-07T06:30:15.120Z,7.43
2019-06-07T06:32:50.980Z,6.43
2019-06-07T06:35:12.311Z,7.83
2019-06-07T06:37:42.529Z,6.87
2019-06-07T06:40:09.949Z,7.90
2019-06-07T06:42:37.413Z,6.77
2019-06-07T06:45:06.123Z,6.90
2019-06-07T06:47:33.927Z,7.10
2019-06-07T06:50:02.247Z,6.33
2019-06-07T06:52:29.810Z,6.00
2019-06-07T06:55:00.753Z,5.90
2019-06-07T06:57:27.843Z,6.37
2019-06-07T06:59:58.076Z,6.43
2019-06-07T07:02:25.730Z,7.10
2019-06-07T07:04:54.045Z,7.20
2019-06-07T07:07:22.626Z,6.67
2019-06-07T07:09:54.954Z,5.77
2019-06-07T07:12:19.612Z,5.70
2019-06-07T07:14:49.584Z,5.80
2019-06-07T07:17:16.520Z,6.40
2019-06-07T07:19:47.945Z,5.87
2019-06-07T07:22:14.894Z,5.50
2019-06-07T07:24:42.494Z,5.33
2019-06-07T07:27:10.012Z,5.67
2019-06-07T07:29:37.577Z,5.73
2019-06-07T07:32:05.093Z,6.03
2019-06-07T07:34:36.894Z,6.20
2019-06-07T07:37:03.413Z,6.53
2019-06-07T07:39:32.830Z,6.13
2019-06-07T07:42:18.048Z,6.03
2019-06-07T07:44:33.335Z,6.97
2019-06-07T07:47:03.426Z,5.43
2019-06-07T07:49:33.744Z,5.63
2019-06-07T07:52:08.697Z,5.70
2019-06-07T07:54:36.188Z,7.47
2019-06-07T07:57:10.478Z,4.67
2019-06-07T07:59:44.182Z,4.93
2019-06-07T08:02:04.717Z,4.70
2019-06-07T08:05:12.750Z,6.77
2019-06-07T08:07:03.295Z,5.63
2019-06-07T08:09:30.832Z,4.90
2019-06-07T08:12:01.921Z,5.90
2019-06-07T08:14:27.665Z,5.17
2019-06-07T08:16:57.871Z,7.67
2019-06-07T08:19:24.571Z,6.07
2019-06-07T08:21:56.043Z,5.80
2019-06-07T08:24:23.662Z,7.63
2019-06-07T08:27:12.321Z,5.27
2019-06-07T08:29:21.865Z,5.57
2019-06-07T08:31:51.862Z,4.67
2019-06-07T08:34:18.776Z,6.10
2019-06-07T08:36:48.037Z,4.47
2019-06-07T08:39:16.761Z,4.07
2019-06-07T08:41:53.710Z,6.37
2019-06-07T08:44:23.184Z,3.93
2019-06-07T08:46:45.133Z,4.37
2019-06-07T08:49:15.108Z,3.80
2019-06-07T08:51:42.655Z,5.53
2019-06-07T08:54:22.434Z,5.67
2019-06-07T08:56:41.427Z,4.50
2019-06-07T08:59:11.431Z,3.67
2019-06-07T09:01:38.318Z,4.13
2019-06-07T09:04:10.522Z,4.43
2019-06-07T09:09:06.283Z,4.00
2019-06-07T09:11:33.839Z,3.33
2019-06-07T09:14:05.344Z,5.43
2019-06-07T09:16:30.777Z,4.53
2019-06-07T09:18:59.184Z,3.30
2019-06-07T09:21:27.699Z,3.37
2019-06-07T09:23:57.203Z,5.33
2019-06-07T09:26:24.664Z,3.73
2019-06-07T09:28:52.271Z,3.97
2019-06-07T09:31:19.778Z,3.20
2019-06-07T09:33:47.703Z,4.63
2019-06-07T09:36:15.283Z,3.87
2019-06-07T09:38:43.954Z,4.60
2019-06-07T09:41:11.512Z,3.57
2019-06-07T09:44:04.784Z,5.20
2019-06-07T09:46:13.985Z,3.80
2019-06-07T09:51:18.560Z,3.83
2019-06-07T09:53:36.559Z,3.97
2019-06-07T09:56:08.680Z,3.30
2019-06-07T10:01:07.416Z,3.60
2019-06-07T10:03:32.767Z,3.07
2019-06-07T10:06:03.436Z,5.30
2019-06-07T10:10:58.924Z,4.43
2019-06-07T10:13:26.656Z,5.33
2019-06-07T10:15:54.221Z,2.77
2019-06-07T10:18:21.795Z,4.47
2019-06-07T10:20:49.659Z,6.80
2019-06-07T10:23:19.251Z,3.80
2019-06-07T10:25:46.773Z,4.00
2019-06-07T10:28:14.313Z,4.63
2019-06-07T10:30:41.840Z,5.10
2019-06-07T10:33:10.497Z,6.07
2019-06-07T10:35:38.121Z,2.90
2019-06-07T10:38:06.627Z,2.83
2019-06-07T10:40:34.333Z,4.03
2019-06-07T10:43:02.969Z,4.20
2019-06-07T10:45:30.585Z,3.10
2019-06-07T10:47:58.124Z,3.00
2019-06-07T10:50:25.724Z,3.17
2019-06-07T10:52:53.137Z,2.77
2019-06-07T10:55:20.661Z,3.07
2019-06-07T10:57:48.199Z,3.63
2019-06-07T11:00:17.634Z,6.60
2019-06-07T11:02:45.068Z,2.10
2019-06-07T11:05:14.444Z,3.50
2019-06-07T11:07:42.293Z,3.17
2019-06-07T11:10:16.683Z,3.97
2019-06-07T11:12:39.261Z,4.03
2019-06-07T11:15:08.658Z,3.90
2019-06-07T11:17:36.481Z,4.33
2019-06-07T11:20:08.190Z,2.43
2019-06-07T11:22:36.014Z,3.50
2019-06-07T11:25:04.999Z,2.30
2019-06-07T11:27:33.925Z,3.77
2019-06-07T11:30:01.443Z,1.40
2019-06-07T11:32:29.056Z,1.70
2019-06-07T11:34:56.599Z,3.53
2019-06-07T11:37:24.156Z,2.30
2019-06-07T11:39:51.688Z,1.90
2019-06-07T11:42:20.062Z,2.03
2019-06-07T11:44:56.609Z,4.53
2019-06-07T11:47:18.447Z,2.60
2019-06-07T11:49:46.162Z,2.63
2019-06-07T11:52:15.775Z,2.93
2019-06-07T11:54:43.487Z,2.77
2019-06-07T11:57:12.997Z,1.97
2019-06-07T11:59:40.616Z,2.60
2019-06-07T12:02:09.129Z,2.67
2019-06-07T12:04:36.780Z,2.23
2019-06-07T12:07:04.372Z,2.20
2019-06-07T12:09:33.260Z,2.67
2019-06-07T12:12:00.798Z,3.27
2019-06-07T12:14:28.345Z,3.17
2019-06-07T12:16:55.895Z,2.50
2019-06-07T12:19:23.456Z,3.53
2019-06-07T12:21:51.055Z,5.47
2019-06-07T12:24:19.926Z,2.33
2019-06-07T12:26:47.976Z,2.80
2019-06-07T12:29:17.077Z,4.17
2019-06-07T12:31:44.745Z,2.80
2019-06-07T12:34:13.255Z,3.40
2019-06-07T12:36:42.099Z,5.73
2019-06-07T12:39:09.674Z,3.17
2019-06-07T12:41:37.262Z,3.47
2019-06-07T12:44:05.103Z,2.87
2019-06-07T12:46:32.682Z,3.33
2019-06-07T12:49:00.236Z,6.60
2019-06-07T12:51:27.820Z,1.73
2019-06-07T12:53:55.340Z,5.73
2019-06-07T12:56:24.240Z,3.33
2019-06-07T12:58:51.890Z,3.87
2019-06-07T13:01:20.839Z,2.17
2019-06-07T13:03:48.827Z,4.13
2019-06-07T13:06:17.684Z,3.03
2019-06-07T13:08:45.490Z,4.27
2019-06-07T13:11:17.677Z,1.50
2019-06-07T13:13:42.341Z,2.60
2019-06-07T13:16:11.946Z,4.67
2019-06-07T13:18:39.425Z,3.47
2019-06-07T13:21:06.965Z,4.93
2019-06-07T13:23:34.534Z,2.90
2019-06-07T13:26:02.223Z,3.80
2019-06-07T13:28:29.742Z,4.03
2019-06-07T13:30:57.266Z,4.13
2019-06-07T13:33:25.822Z,3.30
2019-06-07T13:35:54.062Z,2.40
2019-06-07T13:38:25.299Z,3.17
2019-06-07T13:40:56.359Z,3.17
2019-06-07T13:43:23.806Z,2.83
2019-06-07T13:45:51.397Z,3.30
2019-06-07T13:48:19.221Z,2.67
2019-06-07T13:50:47.126Z,2.00
2019-06-07T13:53:14.654Z,1.33
2019-06-07T13:55:42.211Z,2.77
2019-06-07T13:58:09.745Z,3.93
2019-06-07T14:00:37.248Z,1.30
2019-06-07T14:03:04.710Z,3.27
2019-06-07T14:05:32.212Z,2.30
2019-06-07T14:07:59.825Z,2.20
2019-06-07T14:10:27.605Z,3.67
2019-06-07T14:12:55.065Z,1.93
2019-06-07T14:15:24.246Z,2.20
2019-06-07T14:17:52.056Z,2.33
2019-06-07T14:20:25.360Z,3.03
2019-06-07T14:22:53.958Z,2.23
2019-06-07T14:25:20.957Z,1.83
2019-06-07T14:27:48.655Z,2.80
2019-06-07T14:30:16.714Z,1.97
2019-06-07T14:32:44.284Z,3.30
2019-06-07T14:35:11.849Z,3.27
2019-06-07T14:37:39.447Z,4.00
2019-06-07T14:40:07.998Z,1.53
2019-06-07T14:42:35.553Z,1.10
2019-06-07T14:45:06.162Z,2.63
2019-06-07T14:47:35.268Z,0.93
2019-06-07T14:50:03.965Z,1.23
2019-06-07T14:52:33.442Z,0.83
2019-06-07T14:55:01.043Z,1.33
2019-06-07T14:57:31.074Z,0.93
2019-06-07T14:59:59.059Z,1.30
2019-06-07T15:02:28.837Z,1.07
2019-06-07T15:04:56.682Z,1.67
2019-06-07T15:07:24.360Z,1.03
2019-06-07T15:09:55.813Z,1.07
2019-06-07T15:12:25.453Z,3.27
2019-06-07T15:14:53.235Z,1.03
2019-06-07T15:17:21.102Z,1.20
2019-06-07T15:19:51.255Z,1.00
2019-06-07T15:22:18.822Z,1.07
2019-06-07T15:24:46.359Z,1.97
2019-06-07T15:27:13.936Z,1.00
2019-06-07T15:29:41.602Z,1.50
2019-06-07T15:32:09.182Z,2.87
2019-06-07T15:34:40.016Z,0.80
2019-06-07T15:37:07.838Z,1.93
2019-06-07T15:39:36.641Z,1.60
2019-06-07T15:42:04.485Z,1.83
2019-06-07T15:44:33.229Z,1.27
2019-06-07T15:47:00.940Z,2.80
2019-06-07T15:49:30.202Z,2.77
2019-06-07T15:52:02.679Z,1.63
2019-06-07T15:54:32.272Z,2.03
2019-06-07T15:57:03.155Z,2.77
2019-06-07T15:59:31.061Z,1.07
2019-06-07T16:01:58.549Z,1.30
2019-06-07T16:04:28.297Z,0.93
2019-06-07T16:06:56.370Z,2.50
2019-06-07T16:09:23.927Z,1.20
2019-06-07T16:11:51.846Z,2.03
2019-06-07T16:14:39.103Z,1.07
2019-06-07T16:17:07.633Z,2.60
2019-06-07T16:19:39.057Z,1.00
2019-06-07T16:22:04.500Z,1.27
2019-06-07T16:24:32.061Z,1.20
2019-06-07T16:27:00.799Z,2.00
2019-06-07T16:29:30.360Z,1.37
2019-06-07T16:31:59.081Z,1.73
2019-06-07T16:34:27.877Z,2.27
2019-06-07T16:36:55.448Z,1.37
2019-06-07T16:39:25.403Z,1.90
2019-06-07T16:41:53.629Z,1.83
2019-06-07T16:44:24.123Z,0.70
2019-06-07T16:46:51.673Z,1.30
2019-06-07T16:49:19.224Z,1.03
2019-06-07T16:51:46.788Z,1.27
2019-06-07T16:54:14.754Z,1.00
2019-06-07T16:56:51.889Z,1.33
2019-06-07T16:59:19.480Z,1.80
2019-06-07T17:01:46.984Z,1.03
2019-06-07T17:04:14.551Z,2.33
2019-06-07T17:06:42.139Z,0.90
2019-06-07T17:09:11.279Z,1.87
2019-06-07T17:11:40.323Z,0.70
2019-06-07T17:14:08.222Z,1.13
2019-06-07T17:16:35.852Z,1.10
2019-06-07T17:19:03.599Z,0.70
2019-06-07T17:21:31.218Z,1.33
2019-06-07T17:23:58.781Z,1.90
2019-06-07T17:26:26.435Z,1.77
2019-06-07T17:28:54.004Z,0.80
2019-06-07T17:31:21.563Z,2.13
2019-06-07T17:33:50.168Z,2.60
2019-06-07T17:36:18.958Z,1.57
2019-06-07T17:38:46.654Z,1.17
2019-06-07T17:41:14.192Z,1.23
2019-06-07T17:43:53.025Z,1.20
2019-06-07T17:46:12.489Z,2.20
2019-06-07T17:48:39.952Z,2.20
2019-06-07T17:51:07.707Z,2.00
2019-06-07T17:53:37.405Z,1.30
2019-06-07T17:56:04.986Z,1.30
2019-06-07T17:58:32.632Z,1.57
2019-06-07T18:01:00.616Z,2.63
2019-06-07T18:03:28.204Z,2.70
2019-06-07T18:05:57.075Z,1.40
2019-06-07T18:08:24.835Z,1.73
2019-06-07T18:10:52.463Z,5.43
2019-06-07T18:13:20.020Z,2.97
2019-06-07T18:15:51.738Z,2.23
2019-06-07T18:18:17.440Z,3.00
2019-06-07T18:20:47.228Z,2.00
2019-06-07T18:23:15.063Z,2.50
2019-06-07T18:25:46.440Z,2.00
2019-06-07T18:28:17.373Z,2.37
2019-06-07T18:30:46.472Z,2.17
2019-06-07T18:33:14.453Z,1.90
2019-06-07T18:35:42.057Z,1.40
2019-06-07T18:38:10.842Z,1.30
2019-06-07T18:40:39.079Z,1.30
2019-06-07T18:43:06.704Z,1.33
2019-06-07T18:45:34.222Z,2.60
2019-06-07T18:48:01.906Z,2.50
2019-06-07T18:50:29.737Z,1.73
2019-06-07T18:53:00.070Z,2.53
2019-06-07T18:55:28.089Z,2.10
2019-06-07T18:57:56.547Z,2.00
2019-06-07T19:00:25.296Z,0.80
2019-06-07T19:02:54.028Z,2.70
2019-06-07T19:05:21.837Z,3.13
2019-06-07T19:07:50.462Z,2.10
2019-06-07T19:10:19.469Z,2.30
2019-06-07T19:12:49.283Z,5.60
2019-06-07T19:15:17.828Z,4.30
2019-06-07T19:17:45.564Z,1.07
2019-06-07T19:20:13.898Z,5.97
2019-06-07T19:22:43.821Z,2.13
2019-06-07T19:25:13.526Z,4.63
2019-06-07T19:27:41.169Z,3.87
2019-06-07T19:30:11.617Z,3.00
2019-06-07T19:32:39.309Z,1.97
2019-06-07T19:35:07.571Z,5.17
2019-06-07T19:37:35.164Z,1.73
2019-06-07T19:40:03.252Z,2.83
2019-06-07T19:42:30.902Z,1.60
2019-06-07T19:45:16.871Z,3.17
2019-06-07T19:47:27.975Z,2.57
2019-06-07T19:49:56.617Z,1.73
2019-06-07T19:52:24.396Z,1.43
2019-06-07T19:54:53.627Z,1.97
2019-06-07T19:57:21.356Z,4.57
2019-06-07T19:59:49.132Z,2.67
2019-06-07T20:02:17.141Z,3.30
2019-06-07T20:04:44.842Z,3.73
2019-06-07T20:07:13.489Z,2.40
2019-06-07T20:09:44.706Z,2.27
2019-06-07T20:12:12.461Z,2.90
2019-06-07T20:14:47.548Z,3.83
2019-06-07T20:17:15.480Z,5.17
2019-06-07T20:19:43.120Z,2.17
2019-06-07T20:22:10.789Z,2.93
2019-06-07T20:24:38.385Z,2.50
2019-06-07T20:27:06.221Z,2.43
2019-06-07T20:29:33.867Z,5.43
2019-06-07T20:32:02.485Z,4.00
2019-06-07T20:34:30.170Z,2.43
2019-06-07T20:36:57.987Z,3.37
2019-06-07T20:39:25.610Z,3.43
2019-06-07T20:41:53.238Z,4.13
2019-06-07T20:44:20.881Z,5.00
2019-06-07T20:46:48.516Z,1.97
2019-06-07T20:49:16.140Z,4.43
2019-06-07T20:51:43.730Z,3.47
2019-06-07T20:54:11.339Z,2.53
2019-06-07T20:56:39.012Z,2.33
2019-06-07T20:59:06.877Z,2.40
2019-06-07T21:01:34.735Z,3.67
2019-06-07T21:04:03.123Z,3.27
2019-06-07T21:06:30.862Z,2.63
2019-06-07T21:08:59.435Z,3.10
2019-06-07T21:11:26.988Z,3.43
2019-06-07T21:13:55.686Z,1.73
2019-06-07T21:16:25.071Z,2.43
2019-06-07T21:18:52.675Z,3.87
2019-06-07T21:21:20.158Z,2.17
2019-06-07T21:23:47.747Z,2.00
2019-06-07T21:26:16.575Z,1.60
2019-06-07T21:28:44.237Z,1.90
2019-06-07T21:31:31.312Z,3.73
2019-06-07T21:33:58.869Z,3.03
2019-06-07T21:36:29.319Z,1.53
2019-06-07T21:38:57.021Z,2.77
2019-06-07T21:41:24.653Z,4.27
2019-06-07T21:43:52.289Z,5.20
2019-06-07T21:46:22.614Z,2.47
2019-06-07T21:48:50.230Z,4.30
2019-06-07T21:51:17.827Z,1.73
2019-06-07T21:53:47.075Z,2.03
2019-06-07T21:56:14.669Z,1.97
2019-06-07T21:58:42.256Z,3.30
2019-06-07T22:01:16.005Z,3.10
2019-06-07T22:03:43.733Z,2.50
2019-06-07T22:06:13.768Z,4.63
2019-06-07T22:08:41.693Z,5.23
2019-06-07T22:11:10.208Z,3.63
2019-06-07T22:13:38.350Z,5.77
2019-06-07T22:16:21.319Z,3.70
2019-06-07T22:18:35.750Z,3.93
2019-06-07T22:21:04.376Z,2.87
2019-06-07T22:23:32.061Z,6.90
2019-06-07T22:26:02.439Z,1.67
2019-06-07T22:28:30.001Z,3.10
2019-06-07T22:30:57.867Z,4.23
2019-06-07T22:33:25.524Z,3.40
2019-06-07T22:35:53.197Z,2.57
2019-06-07T22:38:20.873Z,2.63
2019-06-07T22:40:54.049Z,5.50
2019-06-07T22:43:21.663Z,6.77
2019-06-07T22:45:49.391Z,5.50
2019-06-07T22:48:20.427Z,4.37
2019-06-07T22:50:48.491Z,5.67
2019-06-07T22:53:16.099Z,3.30
2019-06-07T22:55:48.319Z,3.43
2019-06-07T22:58:16.233Z,6.17
2019-06-07T23:00:43.836Z,6.40
2019-06-07T23:03:12.567Z,4.00
2019-06-07T23:05:40.220Z,4.23
2019-06-07T23:08:08.788Z,6.93
2019-06-07T23:10:39.044Z,4.97
2019-06-07T23:13:06.551Z,5.17
2019-06-07T23:15:34.040Z,6.40
2019-06-07T23:18:01.557Z,4.00
2019-06-07T23:20:28.994Z,5.53
2019-06-07T23:22:56.822Z,3.63
2019-06-07T23:25:24.850Z,5.10
2019-06-07T23:27:52.437Z,4.27
2019-06-07T23:30:21.710Z,4.67
2019-06-07T23:32:50.419Z,3.57
2019-06-07T23:35:19.042Z,6.23
2019-06-07T23:37:46.814Z,5.13
2019-06-07T23:40:15.231Z,5.70
2019-06-07T23:42:42.926Z,6.17
2019-06-07T23:45:12.069Z,4.27
2019-06-07T23:47:40.066Z,5.00
2019-06-07T23:50:08.745Z,7.87
2019-06-07T23:52:36.364Z,10.87
2019-06-07T23:55:04.204Z,7.13
2019-06-07T23:57:31.692Z,8.30
2019-06-07T23:59:59.267Z,5.97
